Central Coast CX #8

 2017/18 NCNCA District Championships

Cyclocross: Saturday Jan. 6, 2018 – Schedule
Part of the 2017-18 CCCX Cyclocross Series

Results: Group B

Men B

Place # First Last City Cat Team License Age Laps @ Time Points
1 35 Nate THALHAMER Santa Rosa, CA 3 Top Club 0457848 15 7 @ 00:46:02 50
2 1 Peter AMBIEL Los Altos, CA 4 Alto Velo Racing Club 0509523 25 7 @ 00:48:02 47
3 7 Fergus TANAKA San Francisco, CA 3 ORNOT 0304367 38 7 @ 00:48:18 45
4 3 DYLAN GONG Oakland, CA 3 ROCK LOBSTER 0517470 17 7 @ 00:48:53 44
5 32 Ian DAPOT San Francisco, CA 5 0544993 40 7 @ 00:49:13 43
6 41 Chris ATKINSON 5 Palo Alto Bicycles 8888821 7 @ 00:49:40 42
7 2 Will GIBBY Palo Alto, CA 5 0449272 32 7 @ 00:50:56 41
8 4 Tyler MARCHESANO Sacramento, CA 5 0420060 27 7 @ 00:51:24 40
9 36 Alan BARBARAN 5 King Kog 8888105 7 @ 00:51:33 39
10 39 Geoffrey COLBURN 5 Box Dog Bikes 354508 7 @ 00:52:07 38
11 5 Scott ORTON Santa Rosa, CA 4 Velo Fratello 0332742 34 7 @ 00:52:16 37
12 29 McKay KINSEY Fresno, CA 4 ACADEMY 0423654 15 7 @ 00:53:20 36
13 8 Kyle TAYLOR Santa Cruz, CA 3 0328118 32 7 @ 00:53:39 35
14 33 Melsa SMITH 5 8888818 6 @ 00:46:44 34
15 42 James SULLIVAN 5 Donnelly 221582 6 @ 00:47:11 33
16 37 Travis ALONGI Gilroy, CA 4 The Fast Forward 0304690 33 6 @ 00:47:19 32
17 40 Wayne VANAMAN 5 King Kog 0468213 6 @ 00:50:59 31
18 46 Nyk CROVETTO DUMONT 5 Cognition 8888817 6 @ 00:54:13 30
19 38 Adrian SILVA 5 Vive La Tarte 8888822 5 @ 00:50:31 29
DNS Max PALMER Zionsville, IN 3 Midwest Devo 0454220 15 -
DNS Brent WOOD Felton, CA 3 0311882 33 -
Field: 19 of 119

Masters Men 35+ B

Place # First Last City Cat Team License Age Laps @ Time Points
1 326 Nathan PFFEIFER 5 253397 7 @ 00:50:10 50
2 303 Rob HUNT San Jose, CA 3 Monster Media Racing 0156438 44 7 @ 00:50:42 47
3 301 Leonard GARZA San Francisco, CA 5 STAGE 1/AirLine Cycles 0439297 43 7 @ 00:51:04 45
4 325 Lee SLONE 5 8888825 7 @ 00:51:06 44
5 302 Michael GLECKLER Sacramento, CA 4 Kinetic Cycles 0086340 42 7 @ 00:51:24 43
6 300 Earl ABEL El Dorado Hills, CA 5 8888823 40 7 @ 00:51:55 42
7 304 Martin KOZERA San Carlos, CA 2 Pen Velo Racing/Summit Bicycles 0261903 45 7 @ 00:51:56 41
8 318 Jason CRAWFORD San Ramon, CA 4 VSRT/Livermore Cyclery 0254697 43 7 @ 00:52:57 40
9 306 David PORTER Fairfield, CA 5 0538979 37 6 @ 00:45:36 39
10 323 Chase LATTA 5 Team Oakland 0524494 6 @ 00:46:03 38
DNP 307 Bernardo TAPIA Redwood City, CA 4 SunPower Racing 0456472 45 6 @ 00:46:10 1
DNP 308 Adolfo WRIEDT Morgan Hill, CA 5 8888210 35 6 @ 00:50:38 1
DNS David PALMER Zionsville, IN 5 Midwest Devo Support Crew 457445 42 -
DNS David PORTER Fairfield, CA 5 37 -
Field: 12 of 100

Masters Men 45+ B

Place # First Last City Cat Team License Age Laps @ Time Points
1 614 Jim PERREIRA San Jose, CA 4 The Fast Forward 0434736 52 7 @ 00:48:55 50
2 603 Ken CASHION Castro Valley, CA 3 0006395 49 7 @ 00:49:15 47
3 619 Shawn BECKER Burlingame, CA 3 Pen Velo Racing/Summit Bicycles 0384868 51 7 @ 00:51:09 45
4 615 James PLUMMER Chico, CA 3 0113486 45 7 @ 00:51:37 44
5 608 Andrew HORVAI San Mateo, CA 3 Pen Velo Racing/Summit Bicycles 0418485 51 7 @ 00:51:48 43
6 610 Rene LARRO San Mateo, CA 3 Pen Velo Racing/Summit Bicycles 0387473 49 7 @ 00:52:08 42
7 623 Chris BECKER Moraga, CA 3 0287692 49 6 @ 00:45:22 41
8 604 Shawn DALY Santa Rosa, CA 3 ThirstyBear Cycling 0205616 52 6 @ 00:45:48 40
9 612 DARREN MAR-ELIA San Anselmo, CA 4 Mellow Motors 0022433 54 6 @ 00:46:00 39
10 624 Scott ZAVACK Morgan Hill, CA 4 0226979 51 6 @ 00:46:15 38
11 621 Brian GOKEY San Jose, CA 3 0392565 46 6 @ 00:46:37 37
12 611 Michael LOFTESNES Martinez, CA 4 CBRE Racing 0053118 53 6 @ 00:46:53 36
13 605 Boris FOELSCH Palo Alto, CA 4 Menlo Velo Cyclocross 0360394 54 6 @ 00:46:58 35
14 626 Raymond MENDOZA Santa Cruz, CA 4 0024025 53 6 @ 00:47:11 34
15 616 Kenneth SALVAIL Mountain View, CA 3 Pen Velo Racing/Summit Bicycles 0412004 56 6 @ 00:47:43 33
16 600 Craig BALL San Carlos, CA 5 Voler/Clif/HRS/Rock Lobster 8888826 55 6 @ 00:49:01 32
17 617 Thomas SWITZER San Mateo, CA 3 Pen Velo Racing/Summit Bicycles 0053912 48 6 @ 00:49:36 31
18 609 Frank KALCIC Sunnyvale, CA 3 0272461 53 6 @ 00:50:23 30
19 606 Ben FRENCH Merced, CA 4 Revs Road Race p/b Kinetic Cycles 0366123 47 6 @ 00:50:39 29
20 607 Charles HIMES Santa Rosa, CA 4 Velo Fratello 0016249 48 6 @ 00:51:24 28
21 613 Amthony PARENTI Reno, NV 4 Orange Pedal Cycling 0500251 58 6 @ 00:51:49 27
22 601 John BONO Santa Cruz, CA 4 0303921 50 6 @ 00:52:59 26
23 625 Michael SCHALLER Campbell, CA 4 0253585 51 3 @ 00:25:03 25
24 627 Ramon FIGUEROA Salinas, CA 5 0429243 51 3 @ 00:25:52 24
25 622 Travis ROBERSON 5 Monster Media Racing 521984 1 @ 00:07:56 23
DNS John BURTON San Jose, CA 4 SJBC 0365820 45 -
DNS Paul YOUNG Morgan Hill, CA 4 The Fast Forward 378462 50 -
Field: 25 of 100

Single Speed Men B

Place # First Last City Cat Team License Age Laps @ Time Points
1 216 Jason PRATER Oakland, CA 3 RMRC p/b Turin Bicycles 0244064 35 6 @ 00:44:35 50
2 213 Brian FERRARIO San Jose, CA 3 0088248 52 6 @ 00:45:27 47
3 210 Carlos BALAM 5 Cosmic Cycles 0391443 6 @ 00:47:00 45
4 208 Brandon REIF San Francisco, CA 3 0429363 47 6 @ 00:49:47 44
5 205 Francis JOSE 5 8888828 6 @ 00:52:02 43
6 214 Charles LEWIS San Francisco, CA 4 0462333 31 5 @ 00:44:38 42
7 215 Justin PITTS Fairfax, CA 5 0544378 46 4 @ 00:29:56 41
DNS Justin CHAR San Jose, CA 5 Zee.Aero 30 -
Field: 7 of 100
Table notes: